createdAt,value
2022-09-16T00:01:31.403Z,1.35
2022-09-16T00:03:57.840Z,1.63
2022-09-16T00:06:26.530Z,1.35
2022-09-16T00:08:55.294Z,1.77
2022-09-16T00:11:22.157Z,1.80
2022-09-16T00:13:48.646Z,1.85
2022-09-16T00:16:20.780Z,1.80
2022-09-16T00:18:47.412Z,1.83
2022-09-16T00:21:13.888Z,1.70
2022-09-16T00:23:40.282Z,1.65
2022-09-16T00:26:06.803Z,2.10
2022-09-16T00:28:33.158Z,1.88
2022-09-16T00:31:00.618Z,2.35
2022-09-16T00:33:28.443Z,2.35
2022-09-16T00:36:12.770Z,2.50
2022-09-16T00:38:39.601Z,2.30
2022-09-16T00:41:09.132Z,2.25
2022-09-16T00:44:05.872Z,2.80
2022-09-16T00:46:46.893Z,2.53
2022-09-16T00:49:26.368Z,2.83
2022-09-16T00:51:56.603Z,2.75
2022-09-16T00:54:25.759Z,2.70
2022-09-16T00:56:55.916Z,2.80
2022-09-16T00:59:39.434Z,2.90
2022-09-16T01:02:17.517Z,2.72
2022-09-16T01:04:47.612Z,2.65
2022-09-16T01:07:15.004Z,2.80
2022-09-16T01:09:41.757Z,2.50
2022-09-16T01:12:08.120Z,2.85
2022-09-16T01:14:53.130Z,3.22
2022-09-16T01:17:38.478Z,2.83
2022-09-16T01:20:26.544Z,2.60
2022-09-16T01:23:22.412Z,2.78
2022-09-16T01:26:15.050Z,3.20
2022-09-16T01:29:09.425Z,3.20
2022-09-16T01:32:12.989Z,3.28
2022-09-16T01:34:58.145Z,2.85
2022-09-16T01:37:37.842Z,3.38
2022-09-16T01:40:11.736Z,3.30
2022-09-16T01:42:47.524Z,3.10
2022-09-16T01:45:32.648Z,3.08
2022-09-16T01:48:20.302Z,3.30
2022-09-16T01:51:12.427Z,3.53
2022-09-16T01:54:03.825Z,3.13
2022-09-16T01:56:52.975Z,3.13
2022-09-16T01:59:24.973Z,3.35
2022-09-16T02:02:22.072Z,3.33
2022-09-16T02:04:55.670Z,3.70
2022-09-16T02:07:28.003Z,3.50
2022-09-16T02:09:58.079Z,3.35
2022-09-16T02:12:32.098Z,3.40
2022-09-16T02:15:03.796Z,3.20
2022-09-16T02:17:32.864Z,3.30
2022-09-16T02:20:04.082Z,3.17
2022-09-16T02:22:41.179Z,3.00
2022-09-16T02:25:08.771Z,3.30
2022-09-16T02:27:36.575Z,3.10
2022-09-16T02:30:06.557Z,3.20
2022-09-16T02:32:34.284Z,3.08
2022-09-16T02:35:02.076Z,3.25
2022-09-16T02:37:36.626Z,3.17
2022-09-16T02:40:07.568Z,3.05
2022-09-16T02:42:34.331Z,2.78
2022-09-16T02:45:01.757Z,3.13
2022-09-16T02:47:32.814Z,3.15
2022-09-16T02:50:11.580Z,3.65
2022-09-16T02:52:51.611Z,3.00
2022-09-16T02:55:38.916Z,3.15
2022-09-16T02:58:06.632Z,3.00
2022-09-16T03:00:40.476Z,2.90
2022-09-16T03:03:07.022Z,3.15
2022-09-16T03:05:33.545Z,3.00
2022-09-16T03:08:03.894Z,2.40
2022-09-16T03:10:38.200Z,2.45
2022-09-16T03:13:12.311Z,3.03
2022-09-16T03:16:31.501Z,2.67
2022-09-16T03:19:30.096Z,2.67
2022-09-16T03:22:05.376Z,2.70
2022-09-16T03:24:45.634Z,3.17
2022-09-16T03:27:23.261Z,2.80
2022-09-16T03:29:56.075Z,2.67
2022-09-16T03:32:32.484Z,2.92
2022-09-16T03:35:35.687Z,3.35
2022-09-16T03:40:29.917Z,3.20
2022-09-16T03:42:57.847Z,2.92
2022-09-16T03:45:24.723Z,3.45
2022-09-16T03:47:52.590Z,3.20
2022-09-16T03:50:22.061Z,3.85
2022-09-16T03:52:48.492Z,3.50
2022-09-16T03:55:16.818Z,3.45
2022-09-16T03:57:43.323Z,3.50
2022-09-16T04:00:10.625Z,4.20
2022-09-16T04:02:37.032Z,3.80
2022-09-16T04:05:04.224Z,3.95
2022-09-16T04:07:33.274Z,3.70
2022-09-16T04:09:59.690Z,3.72
2022-09-16T04:12:26.103Z,3.42
2022-09-16T04:14:52.519Z,3.50
2022-09-16T04:17:18.910Z,3.45
2022-09-16T04:19:45.351Z,3.33
2022-09-16T04:22:11.745Z,3.55
2022-09-16T04:24:38.434Z,3.58
2022-09-16T04:27:04.801Z,3.13
2022-09-16T04:29:32.294Z,3.30
2022-09-16T04:32:01.867Z,3.35
2022-09-16T04:34:28.390Z,2.85
2022-09-16T04:36:54.810Z,2.75
2022-09-16T04:39:21.280Z,3.20
2022-09-16T04:41:47.764Z,2.95
2022-09-16T04:44:15.135Z,2.67
2022-09-16T04:46:41.632Z,2.88
2022-09-16T04:49:08.089Z,2.45
2022-09-16T04:51:34.677Z,2.90
2022-09-16T04:54:01.612Z,2.60
2022-09-16T04:56:30.159Z,2.50
2022-09-16T04:58:59.542Z,2.53
2022-09-16T05:01:31.631Z,2.67
2022-09-16T05:04:00.672Z,2.47
2022-09-16T05:06:32.341Z,2.47
2022-09-16T05:09:00.957Z,2.80
2022-09-16T05:11:32.121Z,2.70
2022-09-16T05:14:02.992Z,2.42
2022-09-16T05:16:29.691Z,2.38
2022-09-16T05:18:57.755Z,2.75
2022-09-16T05:21:26.160Z,2.60
2022-09-16T05:23:53.083Z,2.42
2022-09-16T05:26:24.679Z,2.45
2022-09-16T05:28:51.867Z,2.70
2022-09-16T05:31:26.627Z,2.53
2022-09-16T05:33:55.594Z,2.80
2022-09-16T05:36:22.553Z,2.97
2022-09-16T05:39:11.068Z,2.92
2022-09-16T05:41:35.484Z,3.38
2022-09-16T05:44:02.168Z,2.95
2022-09-16T05:46:28.935Z,2.90
2022-09-16T05:48:56.389Z,2.67
2022-09-16T05:51:23.874Z,2.65
2022-09-16T05:53:51.078Z,3.40
2022-09-16T05:56:20.341Z,3.38
2022-09-16T05:58:46.833Z,3.30
2022-09-16T06:01:16.226Z,2.78
2022-09-16T06:03:44.123Z,3.40
2022-09-16T06:06:25.651Z,3.38
2022-09-16T06:08:53.502Z,3.70
2022-09-16T06:11:20.180Z,3.70
2022-09-16T06:13:47.128Z,3.75
2022-09-16T06:16:14.608Z,3.80
2022-09-16T06:18:41.224Z,3.58
2022-09-16T06:21:10.691Z,3.67
2022-09-16T06:23:38.247Z,4.05
2022-09-16T06:26:07.323Z,4.43
2022-09-16T06:28:33.726Z,4.43
2022-09-16T06:31:14.938Z,4.07
2022-09-16T06:33:41.880Z,3.88
2022-09-16T06:36:10.580Z,4.35
2022-09-16T06:38:37.275Z,3.30
2022-09-16T06:41:06.303Z,3.80
2022-09-16T06:43:33.051Z,3.30
2022-09-16T06:46:10.236Z,3.83
2022-09-16T06:48:36.697Z,3.58
2022-09-16T06:51:08.567Z,3.50
2022-09-16T06:53:35.096Z,3.17
2022-09-16T06:56:03.878Z,2.97
2022-09-16T06:58:34.665Z,2.92
2022-09-16T07:01:08.581Z,2.53
2022-09-16T07:03:38.180Z,3.15
2022-09-16T07:06:04.692Z,3.08
2022-09-16T07:08:32.069Z,2.65
2022-09-16T07:11:00.376Z,2.90
2022-09-16T07:13:26.979Z,3.08
2022-09-16T07:16:12.491Z,2.95
2022-09-16T07:18:40.010Z,2.40
2022-09-16T07:21:20.445Z,2.53
2022-09-16T07:23:47.419Z,2.58
2022-09-16T07:26:18.793Z,2.55
2022-09-16T07:28:47.027Z,2.65
2022-09-16T07:31:16.133Z,2.78
2022-09-16T07:33:45.426Z,3.08
2022-09-16T07:36:13.386Z,2.97
2022-09-16T07:38:39.831Z,2.63
2022-09-16T07:41:08.057Z,2.80
2022-09-16T07:43:36.367Z,2.80
2022-09-16T07:46:02.907Z,3.05
2022-09-16T07:48:34.565Z,2.88
2022-09-16T07:51:07.225Z,2.70
2022-09-16T07:53:34.117Z,2.50
2022-09-16T07:56:09.190Z,2.53
2022-09-16T07:58:36.378Z,2.30
2022-09-16T08:01:04.754Z,2.60
2022-09-16T08:03:39.069Z,2.20
2022-09-16T08:06:10.892Z,2.25
2022-09-16T08:08:37.455Z,2.17
2022-09-16T08:11:04.288Z,2.13
2022-09-16T08:13:32.460Z,2.17
2022-09-16T08:16:04.698Z,2.30
2022-09-16T08:18:31.318Z,1.92
2022-09-16T08:20:59.301Z,1.42
2022-09-16T08:23:25.817Z,2.05
2022-09-16T08:25:58.869Z,1.50
2022-09-16T08:28:25.579Z,1.67
2022-09-16T08:30:53.317Z,1.50
2022-09-16T08:33:21.991Z,1.70
2022-09-16T08:35:58.229Z,1.65
2022-09-16T08:38:24.888Z,1.65
2022-09-16T08:41:14.047Z,1.40
2022-09-16T08:43:49.782Z,1.40
2022-09-16T08:46:43.539Z,1.48
2022-09-16T08:49:34.620Z,1.50
2022-09-16T08:52:05.159Z,1.40
2022-09-16T08:54:37.828Z,1.58
2022-09-16T08:57:05.831Z,1.63
2022-09-16T08:59:46.695Z,1.67
2022-09-16T09:05:40.129Z,1.27
2022-09-16T09:08:18.730Z,1.45
2022-09-16T09:10:49.874Z,1.80
2022-09-16T09:13:51.079Z,1.40
2022-09-16T09:16:44.297Z,1.50
2022-09-16T09:19:24.019Z,1.60
2022-09-16T09:22:13.720Z,1.55
2022-09-16T09:25:06.581Z,1.48
2022-09-16T09:27:45.783Z,1.95
2022-09-16T09:30:26.270Z,1.40
2022-09-16T09:33:02.716Z,1.45
2022-09-16T09:35:49.754Z,1.52
2022-09-16T09:38:42.543Z,2.95
2022-09-16T09:41:12.801Z,1.48
2022-09-16T09:43:57.650Z,1.30
2022-09-16T09:46:36.656Z,1.73
2022-09-16T09:49:10.555Z,1.02
2022-09-16T09:51:41.008Z,1.45
2022-09-16T09:54:26.086Z,1.33
2022-09-16T09:57:02.808Z,1.10
2022-09-16T09:59:53.152Z,1.67
2022-09-16T10:02:21.637Z,1.40
2022-09-16T10:04:48.507Z,1.10
2022-09-16T10:07:21.010Z,1.40
2022-09-16T10:12:35.744Z,1.25
2022-09-16T10:15:02.753Z,1.15
2022-09-16T10:17:32.192Z,1.65
2022-09-16T10:20:06.567Z,1.30
2022-09-16T10:22:34.572Z,1.17
2022-09-16T10:25:03.927Z,0.95
2022-09-16T10:27:32.961Z,1.38
2022-09-16T10:30:19.990Z,1.40
2022-09-16T10:32:59.647Z,1.13
2022-09-16T10:35:31.429Z,1.50
2022-09-16T10:38:13.044Z,1.20
2022-09-16T10:40:54.179Z,1.20
2022-09-16T10:43:22.067Z,1.58
2022-09-16T10:45:50.776Z,1.05
2022-09-16T10:48:20.732Z,1.30
2022-09-16T10:51:01.098Z,1.40
2022-09-16T10:53:40.919Z,1.55
2022-09-16T10:56:30.677Z,1.35
2022-09-16T10:59:13.316Z,1.38
2022-09-16T11:02:24.979Z,1.35
2022-09-16T11:05:09.348Z,1.10
2022-09-16T11:07:37.245Z,1.15
2022-09-16T11:10:17.059Z,1.23
2022-09-16T11:13:05.863Z,1.08
2022-09-16T11:15:40.544Z,1.10
2022-09-16T11:18:24.782Z,1.38
2022-09-16T11:20:57.274Z,1.35
2022-09-16T11:26:15.681Z,1.20
2022-09-16T11:29:03.976Z,1.30
2022-09-16T11:31:42.498Z,1.30
2022-09-16T11:34:38.916Z,1.35
2022-09-16T11:37:05.235Z,1.10
2022-09-16T11:39:54.586Z,1.13
2022-09-16T11:42:39.334Z,1.27
2022-09-16T11:45:38.063Z,0.82
2022-09-16T11:48:15.489Z,0.63
2022-09-16T11:50:59.992Z,1.15
2022-09-16T11:53:30.360Z,1.30
2022-09-16T11:58:42.042Z,1.45
2022-09-16T12:01:44.359Z,1.30
2022-09-16T12:04:26.410Z,1.10
2022-09-16T12:07:06.783Z,0.85
2022-09-16T12:09:38.144Z,0.98
2022-09-16T12:12:12.092Z,0.85
2022-09-16T12:14:42.823Z,1.02
2022-09-16T12:17:18.735Z,1.10
2022-09-16T12:19:55.603Z,0.85
2022-09-16T12:22:30.489Z,0.73
2022-09-16T12:25:10.668Z,0.80
2022-09-16T12:27:57.624Z,0.60
2022-09-16T12:30:28.862Z,0.40
2022-09-16T12:33:00.123Z,0.50
2022-09-16T12:35:39.937Z,0.50
2022-09-16T12:38:15.775Z,0.40
2022-09-16T12:41:20.611Z,0.70
2022-09-16T12:44:11.188Z,0.45
2022-09-16T12:46:55.772Z,0.50
2022-09-16T12:49:57.308Z,0.60
2022-09-16T12:53:01.424Z,0.57
2022-09-16T12:55:58.470Z,0.70
2022-09-16T12:58:34.034Z,0.70
2022-09-16T13:01:09.666Z,0.90
2022-09-16T13:03:40.542Z,1.10
2022-09-16T13:06:34.033Z,1.20
2022-09-16T13:09:25.512Z,1.10
2022-09-16T13:14:49.474Z,0.90
2022-09-16T13:17:27.584Z,0.90
2022-09-16T13:19:55.071Z,1.10
2022-09-16T13:22:30.069Z,1.42
2022-09-16T13:25:21.237Z,1.00
2022-09-16T13:27:59.206Z,1.20
2022-09-16T13:30:38.757Z,1.27
2022-09-16T13:33:11.728Z,0.93
2022-09-16T13:35:40.070Z,1.15
2022-09-16T13:38:18.611Z,1.02
2022-09-16T13:41:02.095Z,1.80
2022-09-16T13:43:41.975Z,0.95
2022-09-16T13:46:10.442Z,1.10
2022-09-16T13:48:44.365Z,1.20
2022-09-16T13:51:16.256Z,1.35
2022-09-16T13:53:48.205Z,1.30
2022-09-16T13:56:46.413Z,1.20
2022-09-16T13:59:20.073Z,1.15
2022-09-16T14:01:59.790Z,1.05
2022-09-16T14:05:00.154Z,1.30
2022-09-16T14:07:51.280Z,1.15
2022-09-16T14:10:36.754Z,1.50
2022-09-16T14:13:11.306Z,1.10
2022-09-16T14:15:42.794Z,1.02
2022-09-16T14:18:13.269Z,1.00
2022-09-16T14:21:10.545Z,0.65
2022-09-16T14:23:36.932Z,0.60
2022-09-16T14:26:23.471Z,0.80
2022-09-16T14:28:50.323Z,0.80
2022-09-16T14:31:21.869Z,1.00
2022-09-16T14:33:56.664Z,0.90
2022-09-16T14:36:25.755Z,1.00
2022-09-16T14:39:01.003Z,1.38
2022-09-16T14:41:36.780Z,1.20
2022-09-16T14:44:20.978Z,1.10
2022-09-16T14:47:07.545Z,1.15
2022-09-16T14:49:37.694Z,1.27
2022-09-16T14:52:04.355Z,0.82
2022-09-16T14:54:31.458Z,0.75
2022-09-16T14:57:02.182Z,0.98
2022-09-16T14:59:31.564Z,0.90
2022-09-16T15:02:19.227Z,0.80
2022-09-16T15:04:49.524Z,1.00
2022-09-16T15:07:23.787Z,0.80
2022-09-16T15:09:52.827Z,1.00
2022-09-16T15:12:23.892Z,1.05
2022-09-16T15:14:50.525Z,0.60
2022-09-16T15:17:21.491Z,0.90
2022-09-16T15:19:59.552Z,1.10
2022-09-16T15:22:27.016Z,0.88
2022-09-16T15:24:55.771Z,1.00
2022-09-16T15:27:28.854Z,1.00
2022-09-16T15:29:59.180Z,1.27
2022-09-16T15:32:31.829Z,0.90
2022-09-16T15:35:11.698Z,1.00
2022-09-16T15:37:38.252Z,1.23
2022-09-16T15:40:19.878Z,1.20
2022-09-16T15:42:47.845Z,1.67
2022-09-16T15:45:17.858Z,1.20
2022-09-16T15:48:11.383Z,1.25
2022-09-16T15:50:45.711Z,1.23
2022-09-16T15:53:20.724Z,1.30
2022-09-16T15:55:50.133Z,1.42
2022-09-16T15:58:37.112Z,1.20
2022-09-16T16:01:05.850Z,0.95
2022-09-16T16:03:47.647Z,1.63
2022-09-16T16:06:14.606Z,1.58
2022-09-16T16:08:47.355Z,1.00
2022-09-16T16:11:19.167Z,1.10
2022-09-16T16:13:46.399Z,1.40
2022-09-16T16:16:14.443Z,1.50
2022-09-16T16:18:41.972Z,1.38
2022-09-16T16:21:10.578Z,1.40
2022-09-16T16:23:37.562Z,1.60
2022-09-16T16:26:08.592Z,1.58
2022-09-16T16:28:36.016Z,1.25
2022-09-16T16:31:16.993Z,1.45
2022-09-16T16:33:47.869Z,1.73
2022-09-16T16:36:15.761Z,1.67
2022-09-16T16:38:42.255Z,1.50
2022-09-16T16:41:09.174Z,1.48
2022-09-16T16:43:35.584Z,1.88
2022-09-16T16:46:02.093Z,1.77
2022-09-16T16:48:29.018Z,2.13
2022-09-16T16:50:56.526Z,1.60
2022-09-16T16:53:22.980Z,1.65
2022-09-16T16:55:49.382Z,1.83
2022-09-16T16:58:15.830Z,1.67
2022-09-16T17:00:42.191Z,1.73
2022-09-16T17:03:08.599Z,1.33
2022-09-16T17:05:34.964Z,1.58
2022-09-16T17:08:01.751Z,1.60
2022-09-16T17:10:28.880Z,1.40
2022-09-16T17:12:55.310Z,1.45
2022-09-16T17:15:22.159Z,1.65
2022-09-16T17:17:48.638Z,1.35
2022-09-16T17:20:15.115Z,1.48
2022-09-16T17:22:41.582Z,1.33
2022-09-16T17:25:08.375Z,1.50
2022-09-16T17:27:35.631Z,1.50
2022-09-16T17:30:02.143Z,2.25
2022-09-16T17:32:28.902Z,1.60
2022-09-16T17:34:55.352Z,1.80
2022-09-16T17:37:21.848Z,1.65
2022-09-16T17:39:49.521Z,1.50
2022-09-16T17:42:16.238Z,1.75
2022-09-16T17:44:42.797Z,1.70
2022-09-16T17:47:10.386Z,2.15
2022-09-16T17:49:36.805Z,1.58
2022-09-16T17:52:03.205Z,2.10
2022-09-16T17:54:29.824Z,1.70
2022-09-16T17:56:56.186Z,1.88
2022-09-16T17:59:22.688Z,2.13
2022-09-16T18:01:49.219Z,1.90
2022-09-16T18:04:15.688Z,2.05
2022-09-16T18:06:46.353Z,1.92
2022-09-16T18:09:13.219Z,1.95
2022-09-16T18:11:40.375Z,1.85
2022-09-16T18:14:09.674Z,1.83
2022-09-16T18:16:36.151Z,1.75
2022-09-16T18:19:04.047Z,2.55
2022-09-16T18:21:31.260Z,1.85
2022-09-16T18:23:59.764Z,2.13
2022-09-16T18:26:26.887Z,2.08
2022-09-16T18:29:10.347Z,2.17
2022-09-16T18:31:37.740Z,1.77
2022-09-16T18:34:04.480Z,2.00
2022-09-16T18:36:32.611Z,1.90
2022-09-16T18:38:59.272Z,1.60
2022-09-16T18:41:31.815Z,1.50
2022-09-16T18:46:30.870Z,1.73
2022-09-16T18:48:58.446Z,1.60
2022-09-16T18:51:32.379Z,1.45
2022-09-16T18:54:02.053Z,1.75
2022-09-16T18:56:31.904Z,1.50
2022-09-16T19:01:51.838Z,1.70
2022-09-16T19:04:20.447Z,1.52
2022-09-16T19:06:49.067Z,1.40
2022-09-16T19:09:18.157Z,1.40
2022-09-16T19:11:44.593Z,1.98
2022-09-16T19:14:15.130Z,2.20
2022-09-16T19:16:43.351Z,1.88
2022-09-16T19:19:12.452Z,2.13
2022-09-16T19:21:39.436Z,1.90
2022-09-16T19:24:07.332Z,1.80
2022-09-16T19:26:36.360Z,2.22
2022-09-16T19:29:04.933Z,1.73
2022-09-16T19:31:31.895Z,2.33
2022-09-16T19:33:59.229Z,1.45
2022-09-16T19:36:27.519Z,2.08
2022-09-16T19:38:54.678Z,1.90
2022-09-16T19:41:22.852Z,1.77
2022-09-16T19:43:54.465Z,1.80
2022-09-16T19:46:20.928Z,1.60
2022-09-16T19:48:48.648Z,1.70
2022-09-16T19:51:17.215Z,1.80
2022-09-16T19:53:44.727Z,2.00
2022-09-16T19:56:15.515Z,1.75
2022-09-16T19:58:42.208Z,1.92
2022-09-16T20:01:10.062Z,2.28
2022-09-16T20:03:38.920Z,1.38
2022-09-16T20:06:10.417Z,2.03
2022-09-16T20:08:38.351Z,1.70
2022-09-16T20:11:17.195Z,1.90
2022-09-16T20:13:55.086Z,1.58
2022-09-16T20:16:24.685Z,2.20
2022-09-16T20:18:51.368Z,1.85
2022-09-16T20:21:20.754Z,2.08
2022-09-16T20:23:48.044Z,1.80
2022-09-16T20:26:19.405Z,1.80
2022-09-16T20:28:54.430Z,2.15
2022-09-16T20:31:26.661Z,2.00
2022-09-16T20:33:53.807Z,1.60
2022-09-16T20:36:22.553Z,1.90
2022-09-16T20:38:49.605Z,1.98
2022-09-16T20:41:22.076Z,2.20
2022-09-16T20:43:49.106Z,1.83
2022-09-16T20:46:24.616Z,2.00
2022-09-16T20:48:58.941Z,1.60
2022-09-16T20:51:28.108Z,1.77
2022-09-16T20:53:56.405Z,1.75
2022-09-16T20:56:23.185Z,2.08
2022-09-16T20:58:50.875Z,1.95
2022-09-16T21:01:23.442Z,2.25
2022-09-16T21:06:25.802Z,1.88
2022-09-16T21:08:53.516Z,2.20
2022-09-16T21:11:20.798Z,2.08
2022-09-16T21:13:53.863Z,2.00
2022-09-16T21:16:21.068Z,2.10
2022-09-16T21:18:47.751Z,2.17
2022-09-16T21:21:16.710Z,2.42
2022-09-16T21:23:45.499Z,2.30
2022-09-16T21:26:14.529Z,2.50
2022-09-16T21:28:41.997Z,2.35
2022-09-16T21:31:12.009Z,2.70
2022-09-16T21:33:39.171Z,2.30
2022-09-16T21:36:09.008Z,2.25
2022-09-16T21:38:35.610Z,2.33
2022-09-16T21:41:06.870Z,1.80
2022-09-16T21:43:41.771Z,2.05
2022-09-16T21:46:12.463Z,1.90
2022-09-16T21:48:39.063Z,1.80
2022-09-16T21:51:08.092Z,1.95
2022-09-16T21:53:37.162Z,1.95
2022-09-16T21:56:07.724Z,1.95
2022-09-16T21:58:35.055Z,1.90
2022-09-16T22:01:07.754Z,1.90
2022-09-16T22:03:35.689Z,1.92
2022-09-16T22:06:02.515Z,2.17
2022-09-16T22:08:29.089Z,2.40
2022-09-16T22:11:10.514Z,2.33
2022-09-16T22:13:37.501Z,2.38
2022-09-16T22:16:04.373Z,2.55
2022-09-16T22:18:31.431Z,2.17
2022-09-16T22:21:09.368Z,2.10
2022-09-16T22:23:37.070Z,2.08
2022-09-16T22:26:08.856Z,2.30
2022-09-16T22:28:35.608Z,2.00
2022-09-16T22:31:13.026Z,2.67
2022-09-16T22:33:41.100Z,2.15
2022-09-16T22:36:09.856Z,2.08
2022-09-16T22:38:36.571Z,2.22
2022-09-16T22:41:06.058Z,2.03
2022-09-16T22:43:39.905Z,2.30
2022-09-16T22:46:17.712Z,2.13
2022-09-16T22:48:45.012Z,1.70
2022-09-16T22:51:13.257Z,1.88
2022-09-16T22:53:40.325Z,1.90
2022-09-16T22:56:09.946Z,1.77
2022-09-16T22:58:36.333Z,1.92
2022-09-16T23:01:08.200Z,2.15
2022-09-16T23:03:35.699Z,2.17
2022-09-16T23:06:05.981Z,2.58
2022-09-16T23:08:34.565Z,2.33
2022-09-16T23:11:05.395Z,2.22
2022-09-16T23:13:33.201Z,2.90
2022-09-16T23:16:01.917Z,2.53
2022-09-16T23:18:30.316Z,2.40
2022-09-16T23:21:17.085Z,3.05
2022-09-16T23:23:48.142Z,2.28
2022-09-16T23:26:16.863Z,2.40
2022-09-16T23:28:43.322Z,3.20
2022-09-16T23:31:12.526Z,2.70
2022-09-16T23:33:39.584Z,2.67
2022-09-16T23:36:07.209Z,2.88
2022-09-16T23:38:35.137Z,3.13
2022-09-16T23:41:06.499Z,3.45
2022-09-16T23:43:33.003Z,3.10
2022-09-16T23:46:01.916Z,2.92
2022-09-16T23:48:29.534Z,2.97
2022-09-16T23:50:56.187Z,3.40
2022-09-16T23:53:22.765Z,3.22
2022-09-16T23:55:49.145Z,3.25
2022-09-16T23:58:16.233Z,3.30
